Time;durP1;ratioP1;P1;durP2;ratioP2;P2;SDS_P1;SDS_P2;PMS_P1;PMS_P2;Temp;Humidity;BMP_temperature;BMP_pressure;BME280_temperature;BME280_humidity;BME280_pressure;Samples;Min_cycle;Max_cycle;Signal;HPM_P1;HPM_P2
2022/05/18 00:00:48;;;;;;;3.67;1.42;;;;;;;10.49;nan;101736.09;4928888;28;20039;-76
2022/05/18 00:03:18;;;;;;;2.25;1.40;;;;;;;10.49;nan;101744.03;4940976;28;20047;-79
2022/05/18 00:05:45;;;;;;;2.30;1.50;;;;;;;10.50;nan;101747.53;4940915;28;20046;-79
2022/05/18 00:08:12;;;;;;;1.95;1.30;;;;;;;10.37;nan;101744.94;4956670;28;20043;-79
2022/05/18 00:10:41;;;;;;;1.73;1.30;;;;;;;10.35;nan;101743.19;4950323;28;20129;-79
2022/05/18 00:13:08;;;;;;;4.07;1.50;;;;;;;10.39;nan;101758.16;4922580;28;20049;-81
2022/05/18 00:15:36;;;;;;;1.95;1.48;;;;;;;10.37;nan;101759.91;4957157;28;20047;-79
2022/05/18 00:18:04;;;;;;;2.78;1.42;;;;;;;10.45;nan;101762.56;4927777;28;20061;-79
2022/05/18 00:20:30;;;;;;;1.80;1.30;;;;;;;10.28;nan;101765.22;4947065;28;20042;-79
2022/05/18 00:22:59;;;;;;;3.55;1.95;;;;;;;10.32;nan;101767.84;4923982;28;20050;-79
2022/05/18 00:25:29;;;;;;;2.75;1.30;;;;;;;10.15;nan;101762.53;4938029;28;20061;-79
2022/05/18 00:27:56;;;;;;;1.85;1.27;;;;;;;10.10;nan;101760.81;4953519;28;20043;-79
2022/05/18 00:30:24;;;;;;;3.17;1.60;;;;;;;10.13;nan;101769.59;4938659;28;20043;-79
2022/05/18 00:32:51;;;;;;;5.28;1.40;;;;;;;9.98;nan;101772.25;4939195;28;20090;-79
2022/05/18 00:35:18;;;;;;;3.08;1.40;;;;;;;9.91;nan;101775.75;4938016;28;20141;-79
2022/05/18 00:37:46;;;;;;;3.13;1.48;;;;;;;9.94;nan;101780.19;4950315;28;20038;-79
2022/05/18 00:40:15;;;;;;;1.85;1.50;;;;;;;9.99;nan;101783.69;4940254;28;20043;-79
2022/05/18 00:42:42;;;;;;;2.45;1.40;;;;;;;10.04;nan;101777.53;4935100;28;20684;-80
2022/05/18 00:45:10;;;;;;;3.05;1.48;;;;;;;9.98;nan;101785.44;4941881;28;20045;-79
2022/05/18 00:47:37;;;;;;;6.15;2.00;;;;;;;9.92;nan;101781.91;4953723;28;20090;-79
2022/05/18 00:50:20;;;;;;;2.33;1.40;;;;;;;9.83;nan;101777.50;4951347;28;20111;-79
2022/05/18 00:52:52;;;;;;;1.90;1.30;;;;;;;9.80;nan;101788.09;4938483;28;20181;-79
2022/05/18 00:55:21;;;;;;;3.13;1.65;;;;;;;9.87;nan;101782.81;4949364;28;20042;-79
2022/05/18 00:57:53;;;;;;;1.83;1.38;;;;;;;9.82;nan;101791.59;4922526;28;20039;-79
2022/05/18 01:00:20;;;;;;;2.58;1.50;;;;;;;9.87;nan;101792.50;4947501;28;20043;-79
2022/05/18 01:02:52;;;;;;;2.50;1.27;;;;;;;9.88;nan;101797.75;4940316;28;20101;-78
2022/05/18 01:05:23;;;;;;;4.35;2.33;;;;;;;10.03;nan;101786.34;4923222;28;20039;-79
2022/05/18 01:07:52;;;;;;;3.03;1.60;;;;;;;10.17;nan;101799.50;4952918;28;20066;-79
2022/05/18 01:10:18;;;;;;;2.75;1.45;;;;;;;10.21;nan;101801.28;4947553;28;20125;-78
2022/05/18 01:12:47;;;;;;;7.88;1.80;;;;;;;10.31;nan;101804.81;4951276;28;20039;-79
2022/05/18 01:15:18;;;;;;;4.57;1.50;;;;;;;10.36;nan;101803.94;4954190;28;20090;-79
2022/05/18 01:17:49;;;;;;;2.92;1.52;;;;;;;10.35;nan;101811.88;4940120;28;20516;-79
2022/05/18 01:20:26;;;;;;;2.63;1.33;;;;;;;10.36;nan;101805.72;4930034;28;20638;-79
2022/05/18 01:23:12;;;;;;;2.58;1.60;;;;;;;10.53;nan;101814.50;4946120;28;20050;-80
2022/05/18 01:26:17;;;;;;;2.28;1.25;;;;;;;10.58;nan;101819.75;4946641;28;20101;-79
2022/05/18 01:28:50;;;;;;;1.42;1.25;;;;;;;10.52;nan;101817.16;4948521;28;20043;-80
2022/05/18 01:31:17;;;;;;;2.40;1.43;;;;;;;10.43;nan;101823.31;4933577;28;20508;-79
2022/05/18 01:33:44;;;;;;;2.55;1.60;;;;;;;10.54;nan;101820.66;4935259;29;20523;-79
2022/05/18 01:36:11;;;;;;;3.75;1.60;;;;;;;10.57;nan;101831.22;4945874;28;20106;-79
2022/05/18 01:38:38;;;;;;;3.00;1.35;;;;;;;10.56;nan;101822.41;4922242;29;20051;-79
2022/05/18 01:41:14;;;;;;;4.53;1.48;;;;;;;10.58;nan;101832.97;4938917;28;20126;-78
2022/05/18 01:43:48;;;;;;;3.75;1.63;;;;;;;10.58;nan;101833.84;4937564;29;20071;-80
2022/05/18 01:46:17;;;;;;;3.05;1.40;;;;;;;10.52;nan;101831.22;4938330;29;20051;-80
2022/05/18 01:48:51;;;;;;;3.75;1.10;;;;;;;10.46;nan;101847.09;4930344;29;20027;-80
2022/05/18 01:51:45;;;;;;;3.85;1.52;;;;;;;10.46;nan;101843.56;4936948;28;20047;-80
2022/05/18 01:54:12;;;;;;;3.80;1.85;;;;;;;10.38;nan;101840.94;4930900;28;20055;-80
2022/05/18 01:56:39;;;;;;;3.10;1.20;;;;;;;10.34;nan;101848.00;4956373;28;20043;-80
2022/05/18 01:59:06;;;;;;;2.88;1.35;;;;;;;10.51;nan;101844.41;4956575;28;20031;-79
2022/05/18 02:01:33;;;;;;;4.38;1.40;;;;;;;10.58;nan;101848.81;4928987;28;20044;-79
2022/05/18 02:04:01;;;;;;;2.90;1.27;;;;;;;10.53;nan;101843.56;4953308;28;20067;-81
2022/05/18 02:06:29;;;;;;;2.72;1.45;;;;;;;10.50;nan;101846.19;4950949;28;20111;-80
2022/05/18 02:08:56;;;;;;;3.90;1.23;;;;;;;10.50;nan;101850.59;4964791;28;20129;-80
2022/05/18 02:14:47;;;;;;;4.30;1.20;;;;;;;10.42;nan;101848.88;4951195;28;20093;-81
2022/05/18 02:17:14;;;;;;;2.65;1.27;;;;;;;10.34;nan;101849.72;4938294;28;20057;-79
2022/05/18 02:19:40;;;;;;;3.08;1.13;;;;;;;10.47;nan;101855.88;4933550;29;20128;-78
2022/05/18 02:22:07;;;;;;;2.42;1.23;;;;;;;10.40;nan;101852.38;4949657;28;20120;-79
2022/05/18 02:24:34;;;;;;;2.90;1.38;;;;;;;10.43;nan;101855.03;4924114;29;20051;-80
2022/05/18 02:27:00;;;;;;;6.78;1.50;;;;;;;10.33;nan;101859.41;4921453;28;20051;-79
2022/05/18 02:29:27;;;;;;;2.10;1.05;;;;;;;10.22;nan;101850.63;4930299;28;20567;-79
2022/05/18 02:31:54;;;;;;;3.03;1.40;;;;;;;10.19;nan;101860.28;4946016;28;20043;-81
2022/05/18 02:34:21;;;;;;;1.75;1.25;;;;;;;10.22;nan;101865.53;4932224;28;20071;-79
2022/05/18 02:36:48;;;;;;;3.50;1.50;;;;;;;10.28;nan;101865.59;4937896;28;20112;-78
2022/05/18 02:39:15;;;;;;;4.00;1.50;;;;;;;10.31;nan;101862.94;4967250;28;20445;-79
2022/05/18 02:41:42;;;;;;;3.00;1.60;;;;;;;10.31;nan;101857.66;4941517;28;20047;-79
2022/05/18 02:44:09;;;;;;;3.20;1.48;;;;;;;10.30;nan;101862.06;4924125;28;20519;-80
2022/05/18 02:46:35;;;;;;;2.53;1.20;;;;;;;10.32;nan;101864.69;4934404;28;20126;-78
2022/05/18 02:49:02;;;;;;;2.83;1.40;;;;;;;10.25;nan;101873.50;4928026;29;20039;-80
2022/05/18 02:51:30;;;;;;;1.58;1.13;;;;;;;10.18;nan;101869.97;4950281;28;20039;-79
2022/05/18 02:53:57;;;;;;;2.45;1.30;;;;;;;10.20;nan;101869.97;4962518;28;20115;-79
2022/05/18 02:56:26;;;;;;;1.80;1.15;;;;;;;10.08;nan;101873.44;4969436;28;20042;-79
2022/05/18 02:58:56;;;;;;;3.80;1.55;;;;;;;10.09;nan;101875.25;4953464;28;20042;-78
2022/05/18 03:01:24;;;;;;;3.78;1.55;;;;;;;10.08;nan;101882.25;4946521;28;20110;-79
2022/05/18 03:03:52;;;;;;;3.83;1.40;;;;;;;10.05;nan;101878.75;4938174;28;20121;-79
2022/05/18 03:06:21;;;;;;;2.15;1.27;;;;;;;10.05;nan;101887.53;4968202;28;20046;-79
2022/05/18 03:08:48;;;;;;;1.83;1.42;;;;;;;10.03;nan;101891.06;4950738;28;20562;-79
2022/05/18 03:11:15;;;;;;;2.45;1.55;;;;;;;9.97;nan;101886.66;4926318;29;20059;-80
2022/05/18 03:13:42;;;;;;;5.07;1.48;;;;;;;9.99;nan;101887.53;4935327;29;20136;-81
2022/05/18 03:16:09;;;;;;;2.42;1.38;;;;;;;10.00;nan;101885.75;4965615;28;20047;-80
2022/05/18 03:18:36;;;;;;;2.38;1.10;;;;;;;9.97;nan;101891.03;4932329;29;20063;-79
2022/05/18 03:23:49;;;;;;;3.33;1.30;;;;;;;9.99;nan;101879.59;4944126;28;20043;-79
2022/05/18 03:26:18;;;;;;;4.78;1.60;;;;;;;9.91;nan;101884.00;4959375;28;20086;-79
2022/05/18 03:28:47;;;;;;;3.43;1.50;;;;;;;9.90;nan;101890.16;4961794;28;20055;-79
2022/05/18 03:31:14;;;;;;;1.85;1.40;;;;;;;9.94;nan;101891.06;4929832;28;20072;-78
2022/05/18 03:33:41;;;;;;;3.85;1.70;;;;;;;9.99;nan;101892.81;4941842;28;20133;-79
2022/05/18 03:36:12;;;;;;;5.05;1.70;;;;;;;9.97;nan;101888.41;4950855;28;20099;-79
2022/05/18 03:38:39;;;;;;;15.63;3.15;;;;;;;9.88;nan;101889.28;4940813;28;20041;-79
2022/05/18 03:41:06;;;;;;;6.03;1.85;;;;;;;9.91;nan;101885.75;4946752;28;20043;-78
2022/05/18 03:43:33;;;;;;;2.60;1.40;;;;;;;9.92;nan;101892.78;4945821;29;20065;-80
2022/05/18 03:45:59;;;;;;;4.43;1.60;;;;;;;9.95;nan;101896.34;4953508;28;20059;-79
2022/05/18 03:48:27;;;;;;;2.85;1.35;;;;;;;9.92;nan;101891.06;4922750;28;20047;-79
2022/05/18 03:50:56;;;;;;;3.83;1.33;;;;;;;9.92;nan;101891.06;4913488;29;20094;-79
2022/05/18 03:53:23;;;;;;;3.40;1.30;;;;;;;9.92;nan;101891.06;4919816;29;20039;-79
2022/05/18 03:55:50;;;;;;;3.28;1.42;;;;;;;9.96;nan;101894.56;4920707;29;20040;-79
2022/05/18 03:58:18;;;;;;;2.53;1.33;;;;;;;9.90;nan;101899.81;4920104;29;20043;-79
2022/05/18 04:00:46;;;;;;;3.47;1.27;;;;;;;9.88;nan;101898.06;4919517;29;20040;-79
2022/05/18 04:03:14;;;;;;;2.13;1.27;;;;;;;9.88;nan;101897.19;4914703;29;20096;-79
2022/05/18 04:05:41;;;;;;;4.20;1.42;;;;;;;9.93;nan;101898.09;4916510;29;20050;-79
2022/05/18 04:08:09;;;;;;;3.47;1.70;;;;;;;9.94;nan;101906.91;4908936;29;20418;-79
2022/05/18 04:10:38;;;;;;;4.47;1.73;;;;;;;9.96;nan;101905.13;4916679;29;20039;-80
2022/05/18 04:13:07;;;;;;;2.92;1.73;;;;;;;9.95;nan;101912.16;4925305;29;20099;-79
2022/05/18 04:15:33;;;;;;;5.13;1.73;;;;;;;10.04;nan;101896.34;4927451;29;20612;-80
2022/05/18 04:18:00;;;;;;;2.58;1.30;;;;;;;10.04;nan;101900.75;4931446;29;20065;-80
2022/05/18 04:20:28;;;;;;;3.60;1.50;;;;;;;10.10;nan;101903.41;4906931;29;20055;-80
2022/05/18 04:22:54;;;;;;;4.15;1.58;;;;;;;10.11;nan;101907.81;4922387;29;20126;-80
2022/05/18 04:25:25;;;;;;;3.25;1.20;;;;;;;10.09;nan;101906.94;4933516;29;20814;-79
2022/05/18 04:27:52;;;;;;;1.92;1.20;;;;;;;10.11;nan;101905.16;4921329;29;20079;-79
2022/05/18 04:30:21;;;;;;;3.45;1.88;;;;;;;10.15;nan;101913.06;4910776;29;20048;-80
2022/05/18 04:32:47;;;;;;;2.65;1.45;;;;;;;10.12;nan;101913.06;4921818;29;20070;-79
2022/05/18 04:35:17;;;;;;;2.85;1.33;;;;;;;10.12;nan;101914.84;4917023;29;20047;-81
2022/05/18 04:37:44;;;;;;;2.38;1.40;;;;;;;10.13;nan;101913.97;4902612;29;20043;-80
2022/05/18 04:40:12;;;;;;;1.33;1.15;;;;;;;10.15;nan;101918.34;4929081;29;20039;-79
2022/05/18 04:42:38;;;;;;;3.50;1.50;;;;;;;10.18;nan;101916.63;4935313;29;20048;-80
2022/05/18 04:45:09;;;;;;;2.72;1.60;;;;;;;10.24;nan;101919.28;4926332;29;20039;-80
2022/05/18 04:47:36;;;;;;;1.65;1.17;;;;;;;10.29;nan;101922.81;4928407;29;20074;-80
2022/05/18 04:50:03;;;;;;;2.67;1.65;;;;;;;10.32;nan;101923.69;4914907;29;20039;-79
2022/05/18 04:52:29;;;;;;;3.45;1.40;;;;;;;10.38;nan;101923.69;4907409;29;20107;-80
2022/05/18 04:54:56;;;;;;;2.95;1.30;;;;;;;10.44;nan;101928.13;4926418;29;20059;-81
2022/05/18 04:57:23;;;;;;;7.43;2.00;;;;;;;10.43;nan;101931.66;4934565;29;20079;-80
2022/05/18 04:59:50;;;;;;;10.13;3.60;;;;;;;10.48;nan;101927.22;4930224;29;20071;-79
2022/05/18 05:02:17;;;;;;;8.18;1.83;;;;;;;10.42;nan;101930.75;4939086;29;20117;-79
2022/05/18 05:04:44;;;;;;;7.65;1.58;;;;;;;10.50;nan;101938.66;4945054;29;20036;-80
2022/05/18 05:07:11;;;;;;;3.22;1.42;;;;;;;10.54;nan;101937.81;4929134;29;20054;-80
2022/05/18 05:09:38;;;;;;;4.40;1.83;;;;;;;10.62;nan;101941.31;4924316;29;20059;-80
2022/05/18 05:12:06;;;;;;;3.63;1.35;;;;;;;10.66;nan;101932.50;4941804;29;20047;-80
2022/05/18 05:14:37;;;;;;;3.17;1.50;;;;;;;10.75;nan;101941.31;4950752;29;20047;-79
2022/05/18 05:17:05;;;;;;;3.22;1.40;;;;;;;10.84;nan;101938.66;4932814;29;20588;-80
2022/05/18 05:19:32;;;;;;;3.78;1.50;;;;;;;10.89;nan;101936.88;4926847;29;20094;-79
2022/05/18 05:21:58;;;;;;;3.10;1.45;;;;;;;10.92;nan;101944.81;4927319;29;20126;-79
2022/05/18 05:24:25;;;;;;;1.67;1.15;;;;;;;11.06;nan;101945.69;4951666;29;20071;-80
2022/05/18 05:26:52;;;;;;;2.67;1.50;;;;;;;11.19;nan;101952.72;4959551;29;20047;-80
2022/05/18 05:29:20;;;;;;;3.05;1.40;;;;;;;11.17;nan;101945.66;4922928;29;20060;-79
2022/05/18 05:31:47;;;;;;;5.72;1.90;;;;;;;11.13;nan;101941.25;4906039;29;20493;-79
2022/05/18 05:34:14;;;;;;;16.00;2.97;;;;;;;11.15;nan;101940.38;4923171;29;20043;-79
2022/05/18 05:36:40;;;;;;;5.40;1.70;;;;;;;11.15;nan;101945.66;4927621;29;20039;-80
2022/05/18 05:39:07;;;;;;;3.95;1.73;;;;;;;11.21;nan;101942.13;4908916;29;20040;-80
2022/05/18 05:41:34;;;;;;;4.00;1.65;;;;;;;11.20;nan;101945.66;4897272;29;20117;-80
2022/05/18 05:44:00;;;;;;;4.10;1.77;;;;;;;11.25;nan;101949.16;4926589;29;20044;-80
2022/05/18 05:46:27;;;;;;;2.72;1.40;;;;;;;11.15;nan;101947.41;4932222;29;20055;-78
2022/05/18 05:48:56;;;;;;;2.25;1.55;;;;;;;11.24;nan;101937.69;4945014;23;20104;31
2022/05/18 05:51:23;;;;;;;3.13;1.45;;;;;;;11.36;nan;101930.63;4926536;29;20106;-82
2022/05/18 05:53:51;;;;;;;1.40;1.30;;;;;;;11.56;nan;101934.06;4899287;29;20103;-82
2022/05/18 05:56:20;;;;;;;3.15;1.73;;;;;;;12.00;nan;101935.63;4906116;29;20040;-82
2022/05/18 05:58:48;;;;;;;2.55;1.35;;;;;;;12.67;nan;101933.34;4921069;29;20101;-83
2022/05/18 06:01:16;;;;;;;3.67;1.42;;;;;;;13.11;nan;101931.16;4917245;29;20039;-83
2022/05/18 06:03:43;;;;;;;2.60;1.52;;;;;;;13.65;nan;101939.44;4900891;29;20040;-83
2022/05/18 06:06:10;;;;;;;2.25;1.70;;;;;;;13.56;nan;101934.25;4904234;29;20047;-83
2022/05/18 06:08:38;;;;;;;1.67;1.10;;;;;;;14.03;nan;101939.78;4905930;29;20035;-83
2022/05/18 06:11:05;;;;;;;2.78;1.77;;;;;;;14.19;nan;101944.88;4899841;29;20075;-83
2022/05/18 06:13:32;;;;;;;2.05;1.40;;;;;;;14.17;nan;101938.72;4918308;29;20489;-83
2022/05/18 06:16:00;;;;;;;2.72;1.35;;;;;;;13.89;nan;101941.75;4917939;29;20040;-83
2022/05/18 06:18:27;;;;;;;3.65;1.45;;;;;;;14.36;nan;101948.16;4913620;29;20036;-83
2022/05/18 06:20:53;;;;;;;4.15;1.15;;;;;;;14.36;nan;101946.38;4934750;29;20225;-82
2022/05/18 06:23:20;;;;;;;1.80;1.30;;;;;;;14.37;nan;101949.91;4922813;29;20035;-83
2022/05/18 06:25:47;;;;;;;5.15;1.50;;;;;;;14.25;nan;101952.75;4921624;29;20046;-83
2022/05/18 06:28:14;;;;;;;2.88;1.30;;;;;;;13.85;nan;101958.63;4930352;29;20493;-82
2022/05/18 06:30:41;;;;;;;3.67;1.65;;;;;;;14.00;nan;101957.56;4920576;29;20050;-82
2022/05/18 06:33:09;;;;;;;3.15;1.40;;;;;;;13.91;nan;101966.53;4923156;28;20129;-82
2022/05/18 06:35:36;;;;;;;3.35;1.42;;;;;;;14.17;nan;101965.28;4929433;29;20058;-81
2022/05/18 06:38:13;;;;;;;3.05;1.83;;;;;;;14.20;nan;101971.41;4902557;29;20500;-83
2022/05/18 06:43:27;;;;;;;7.30;1.70;;;;;;;15.03;nan;101975.44;4939728;28;20067;-83
2022/05/18 06:45:54;;;;;;;2.47;1.30;;;;;;;15.14;nan;101968.16;4925775;29;20043;-83
2022/05/18 06:48:20;;;;;;;4.88;1.85;;;;;;;15.59;nan;101966.38;4916548;29;20035;-82
2022/05/18 06:51:07;;;;;;;3.05;1.52;;;;;;;15.53;nan;101973.59;4905383;29;20047;-84
2022/05/18 06:53:34;;;;;;;3.78;1.30;;;;;;;15.09;nan;101975.34;4909704;29;20055;-82
2022/05/18 06:56:01;;;;;;;2.10;1.38;;;;;;;15.14;nan;101965.50;4915559;29;20078;-83
2022/05/18 06:58:30;;;;;;;2.00;1.30;;;;;;;15.18;nan;101962.72;4922050;29;20067;-83
2022/05/18 07:00:57;;;;;;;3.03;1.55;;;;;;;15.41;nan;101967.63;4909984;29;20848;-82
2022/05/18 07:03:24;;;;;;;2.03;1.40;;;;;;;15.70;nan;101958.19;4901828;29;20531;-83
2022/05/18 07:05:50;;;;;;;3.58;1.55;;;;;;;15.44;nan;101969.34;4911963;29;20040;-82
2022/05/18 07:08:17;;;;;;;2.67;1.63;;;;;;;15.65;nan;101965.41;4890091;29;20182;-82
2022/05/18 07:10:44;;;;;;;2.67;1.73;;;;;;;15.78;nan;101958.91;4909581;29;20048;-83
2022/05/18 07:13:16;;;;;;;2.65;1.80;;;;;;;16.00;nan;101956.66;4920305;29;20044;-83
2022/05/18 07:15:45;;;;;;;3.13;1.50;;;;;;;16.38;nan;101973.53;4906725;29;20514;-82
2022/05/18 07:18:12;;;;;;;3.85;1.50;;;;;;;15.80;nan;101967.72;4905031;29;20040;-81
2022/05/18 07:20:38;;;;;;;3.83;1.50;;;;;;;15.87;nan;101971.16;4882151;29;20094;-83
2022/05/18 07:23:05;;;;;;;2.95;1.73;;;;;;;16.13;nan;101968.78;4909464;29;20572;-81
2022/05/18 07:25:32;;;;;;;2.45;1.40;;;;;;;16.41;nan;101963.69;4893171;29;20043;-81
2022/05/18 07:27:59;;;;;;;3.67;1.40;;;;;;;16.61;nan;101965.88;4884316;29;20045;-83
2022/05/18 07:30:46;;;;;;;3.35;1.73;;;;;;;17.03;nan;101968.41;4936525;29;20031;-82
2022/05/18 07:33:13;;;;;;;2.53;1.52;;;;;;;17.01;nan;101964.91;4926449;29;20051;-82
2022/05/18 07:35:40;;;;;;;5.20;1.80;;;;;;;16.80;nan;101964.50;4919503;29;20058;-81
2022/05/18 07:38:07;;;;;;;3.25;1.92;;;;;;;17.26;nan;101968.66;4907884;29;20040;-83
2022/05/18 07:40:54;;;;;;;3.20;1.88;;;;;;;17.62;nan;101963.19;4909579;29;20108;-82
2022/05/18 07:43:21;;;;;;;3.42;1.67;;;;;;;17.87;nan;101966.06;4917461;29;20130;-83
2022/05/18 07:45:50;;;;;;;5.32;1.67;;;;;;;18.39;nan;101959.94;4929386;29;20051;-83
2022/05/18 07:48:19;;;;;;;4.03;1.40;;;;;;;18.80;nan;101958.59;4901795;29;20043;-82
2022/05/18 07:50:46;;;;;;;3.53;1.70;;;;;;;19.16;nan;101954.69;4912779;29;20049;-82
2022/05/18 07:53:14;;;;;;;3.70;1.88;;;;;;;19.48;nan;101956.22;4937270;29;20046;-82
2022/05/18 07:55:41;;;;;;;101.43;16.45;;;;;;;18.97;nan;101965.19;4922356;29;20091;-82
2022/05/18 07:58:11;;;;;;;3.00;1.77;;;;;;;19.36;nan;101953.06;4935493;29;20099;-80
2022/05/18 08:00:38;;;;;;;7.25;1.98;;;;;;;19.13;nan;101958.38;4936319;29;20042;-81
2022/05/18 08:03:05;;;;;;;2.55;1.58;;;;;;;19.32;nan;101954.09;4922557;29;20501;-80
2022/05/18 08:05:33;;;;;;;1.83;1.33;;;;;;;19.53;nan;101951.56;4921088;29;20035;-80
2022/05/18 08:08:07;;;;;;;3.75;1.80;;;;;;;19.61;nan;101946.84;4948705;29;20098;-81
2022/05/18 08:16:05;;;;;;;4.43;1.83;;;;;;;19.96;nan;101943.66;4906700;29;20138;-81
2022/05/18 08:18:33;;;;;;;5.47;1.75;;;;;;;20.26;nan;101946.03;4887415;29;20119;-81
2022/05/18 08:20:59;;;;;;;3.45;1.83;;;;;;;20.67;nan;101938.13;4919156;29;20090;-82
2022/05/18 08:23:27;;;;;;;2.28;1.63;;;;;;;21.08;nan;101945.28;4920787;29;20051;-81
2022/05/18 08:25:56;;;;;;;3.30;1.92;;;;;;;21.23;nan;101941.03;4914468;29;20051;-81
2022/05/18 08:28:23;;;;;;;4.15;2.10;;;;;;;20.65;nan;101945.38;4940310;28;20035;-81
2022/05/18 08:30:51;;;;;;;4.30;1.90;;;;;;;20.84;nan;101938.28;4925672;28;20050;-82
2022/05/18 08:33:18;;;;;;;3.10;1.67;;;;;;;20.43;nan;101937.31;4939879;28;20039;-81
2022/05/18 08:35:45;;;;;;;71.53;11.68;;;;;;;21.22;nan;101939.31;4948417;28;20043;-82
2022/05/18 08:38:14;;;;;;;2.45;1.95;;;;;;;21.70;nan;101937.19;4933001;28;20059;-80
2022/05/18 08:40:53;;;;;;;3.58;1.55;;;;;;;21.41;nan;101927.75;4926311;29;20413;-81
2022/05/18 08:43:26;;;;;;;5.18;1.90;;;;;;;20.82;nan;101931.25;4941198;29;20102;-82
2022/05/18 08:46:01;;;;;;;2.60;2.25;;;;;;;20.90;nan;101931.78;4944532;29;20078;-82
2022/05/18 08:48:44;;;;;;;3.95;2.28;;;;;;;20.71;nan;101921.84;4919098;29;20053;-81
2022/05/18 08:51:19;;;;;;;5.38;2.20;;;;;;;21.31;nan;101924.63;4926805;29;20051;-81
2022/05/18 08:54:44;;;;;;;8.68;2.63;;;;;;;21.09;nan;101916.59;4949405;28;20039;-81
2022/05/18 08:57:25;;;;;;;3.45;2.20;;;;;;;21.04;nan;101918.63;4928856;29;20046;-82
2022/05/18 08:59:56;;;;;;;171.25;22.98;;;;;;;21.29;nan;101922.00;4921840;29;20027;-80
2022/05/18 09:02:31;;;;;;;6.70;2.55;;;;;;;21.89;nan;101917.41;4924111;28;20035;-83
2022/05/18 09:05:21;;;;;;;2.83;2.38;;;;;;;21.95;nan;101912.69;4938101;29;20050;-81
2022/05/18 09:08:23;;;;;;;3.63;2.42;;;;;;;22.15;nan;101918.88;4952639;28;20046;-82
2022/05/18 09:10:53;;;;;;;58.72;10.48;;;;;;;22.37;nan;101916.00;4948694;28;20130;-82
2022/05/18 09:13:21;;;;;;;3.95;2.10;;;;;;;22.60;nan;101913.94;4933967;29;20571;-82
2022/05/18 09:16:05;;;;;;;3.78;1.70;;;;;;;22.87;nan;101904.50;4928884;29;20042;-80
2022/05/18 09:18:57;;;;;;;11.20;3.83;;;;;;;22.24;nan;101914.84;4941725;28;20102;-81
2022/05/18 09:21:32;;;;;;;4.05;2.05;;;;;;;22.70;nan;101904.44;4961780;28;20299;-81
2022/05/18 09:24:25;;;;;;;3.10;1.90;;;;;;;22.74;nan;101909.59;4927710;28;20031;-81
2022/05/18 09:27:07;;;;;;;2.78;1.98;;;;;;;22.23;nan;101912.22;4926897;29;20087;-81
2022/05/18 09:30:04;;;;;;;5.10;2.17;;;;;;;22.58;nan;101914.03;4955089;28;20061;-81
2022/05/18 09:32:58;;;;;;;2.95;2.20;;;;;;;23.06;nan;101907.09;4951350;28;20062;-81
2022/05/18 09:35:39;;;;;;;3.50;2.65;;;;;;;23.39;nan;101903.53;4936942;29;20083;-81
2022/05/18 09:38:13;;;;;;;3.78;2.13;;;;;;;22.75;nan;101914.03;4947541;29;20043;-81
2022/05/18 09:40:48;;;;;;;4.15;2.35;;;;;;;22.81;nan;101904.78;4937958;28;20074;-81
2022/05/18 09:43:49;;;;;;;3.20;2.00;;;;;;;23.42;nan;101900.66;4925554;29;20058;-80
2022/05/18 09:46:20;;;;;;;2.92;2.08;;;;;;;23.36;nan;101901.84;4934961;29;20083;-81
2022/05/18 09:48:53;;;;;;;5.28;2.53;;;;;;;23.09;nan;101893.44;4955214;29;20049;-81
2022/05/18 09:51:22;;;;;;;3.75;2.42;;;;;;;23.48;nan;101895.81;4935316;29;20051;-81
2022/05/18 09:53:50;;;;;;;2.35;2.00;;;;;;;23.34;nan;101886.72;4940121;29;20070;-82
2022/05/18 09:56:24;;;;;;;3.90;2.33;;;;;;;23.65;nan;101889.50;4920702;29;20035;-81
2022/05/18 09:58:52;;;;;;;3.05;2.22;;;;;;;23.54;nan;101881.09;4942063;29;20123;-84
2022/05/18 10:10:00;;;;;;;4.22;2.40;;;;;;;23.51;nan;101868.66;4946282;29;20031;-78
2022/05/18 10:12:43;;;;;;;3.70;2.55;;;;;;;23.34;nan;101873.25;4900668;28;20532;-79
2022/05/18 10:15:23;;;;;;;2.58;2.30;;;;;;;24.13;nan;101863.38;4931062;29;20039;-78
2022/05/18 10:17:57;;;;;;;4.57;2.67;;;;;;;24.28;nan;101862.47;4945617;28;20081;-81
2022/05/18 10:20:31;;;;;;;3.53;2.25;;;;;;;24.52;nan;101865.59;4932318;29;20043;-79
2022/05/18 10:22:58;;;;;;;;;;;;;;;24.58;nan;101862.53;4926143;29;20039;-79
2022/05/18 10:25:34;;;;;;;2.80;1.98;;;;;;;24.14;nan;101865.13;4938330;29;20335;-79
2022/05/18 10:28:28;;;;;;;4.10;2.60;;;;;;;24.39;nan;101859.19;4946799;28;20488;-80
2022/05/18 10:31:05;;;;;;;5.95;2.20;;;;;;;24.09;nan;101868.09;4930911;29;20047;-79
2022/05/18 10:33:37;;;;;;;5.70;2.10;;;;;;;24.07;nan;101861.91;4905979;29;20481;-80
2022/05/18 10:36:14;;;;;;;2.95;2.08;;;;;;;24.25;nan;101859.09;4948195;29;20137;-80
2022/05/18 10:38:53;;;;;;;5.53;2.10;;;;;;;24.35;nan;101857.63;4935869;29;20066;-81
2022/05/18 10:41:27;;;;;;;4.18;2.17;;;;;;;24.53;nan;101859.22;4932063;29;20044;-81
2022/05/18 10:43:57;;;;;;;2.78;2.05;;;;;;;24.41;nan;101857.25;4940266;29;20050;-79
2022/05/18 10:46:36;;;;;;;11.18;2.80;;;;;;;24.61;nan;101856.06;4943728;28;20047;-80
2022/05/18 10:49:08;;;;;;;3.55;2.40;;;;;;;24.99;nan;101845.63;4915321;29;20116;-80
2022/05/18 10:51:38;;;;;;;5.20;2.28;;;;;;;25.41;nan;101843.91;4946844;29;20049;-80
2022/05/18 10:54:09;;;;;;;2.90;2.38;;;;;;;25.21;nan;101845.16;4950640;28;20043;-80
2022/05/18 10:56:37;;;;;;;5.25;2.25;;;;;;;25.15;nan;101848.25;4933040;29;20039;-80
2022/05/18 10:59:36;;;;;;;6.80;3.20;;;;;;;25.43;nan;101836.56;4950040;29;20528;-81
2022/05/18 11:02:13;;;;;;;5.93;2.38;;;;;;;25.67;nan;101832.25;4929723;29;20525;-79
2022/05/18 11:04:49;;;;;;;4.68;2.13;;;;;;;25.97;nan;101839.34;4936390;29;20039;-81
2022/05/18 11:07:15;;;;;;;4.55;2.60;;;;;;;25.44;nan;101830.16;4946113;28;20040;-85
2022/05/18 11:09:45;;;;;;;3.05;2.05;;;;;;;25.66;nan;101819.69;4925879;29;20043;-81
2022/05/18 11:12:46;;;;;;;3.92;2.30;;;;;;;26.18;nan;101823.50;4932403;28;20062;-84
2022/05/18 11:15:42;;;;;;;5.57;2.65;;;;;;;26.34;nan;101819.66;4966547;28;20051;-81
2022/05/18 11:18:21;;;;;;;3.72;2.40;;;;;;;25.71;nan;101814.00;4943214;28;20039;-81
2022/05/18 11:20:55;;;;;;;5.80;2.40;;;;;;;25.14;nan;101820.34;4911499;29;20528;-81
2022/05/18 11:23:34;;;;;;;7.63;2.58;;;;;;;25.20;nan;101816.38;4932277;29;20040;-81
2022/05/18 11:26:50;;;;;;;4.45;2.47;;;;;;;25.13;nan;101812.31;4956365;28;20035;-83
2022/05/18 11:29:40;;;;;;;6.75;2.88;;;;;;;24.85;nan;101805.91;4911302;29;20056;-81
2022/05/18 11:32:16;;;;;;;5.45;2.47;;;;;;;25.05;nan;101806.50;4961212;23;20034;-81
2022/05/18 11:34:55;;;;;;;6.40;2.83;;;;;;;25.20;nan;101809.13;4978783;28;20061;-79
2022/05/18 11:37:45;;;;;;;6.15;2.90;;;;;;;24.52;nan;101802.56;5017116;28;20052;-84
2022/05/18 11:40:17;;;;;;;3.90;2.35;;;;;;;25.03;nan;101790.41;4983705;28;20034;-82
2022/05/18 11:43:01;;;;;;;4.38;2.40;;;;;;;25.06;nan;101783.94;5008379;28;20077;-84
2022/05/18 11:45:48;;;;;;;;;;;;;;;25.68;nan;101790.69;4981930;28;20068;-80
2022/05/18 11:48:28;;;;;;;4.13;2.38;;;;;;;25.73;nan;101788.59;4978388;28;19922;-80
2022/05/18 11:51:04;;;;;;;6.75;2.17;;;;;;;25.45;nan;101785.91;4962549;28;20039;-82
2022/05/18 11:53:46;;;;;;;3.70;2.35;;;;;;;26.05;nan;101778.28;4961317;28;20471;-82
2022/05/18 11:57:01;;;;;;;4.05;2.28;;;;;;;25.47;nan;101771.28;4962500;28;20121;-79
2022/05/18 11:59:45;;;;;;;5.43;2.20;;;;;;;26.02;nan;101780.34;4919795;28;20051;-80
2022/05/18 12:02:14;;;;;;;2.50;2.10;;;;;;;26.09;nan;101773.53;4949673;28;20047;-79
2022/05/18 12:05:16;;;;;;;2.75;2.20;;;;;;;26.06;nan;101768.31;4968247;29;20043;-80
2022/05/18 12:08:00;;;;;;;5.32;2.25;;;;;;;26.43;nan;101763.13;4946306;29;20090;-79
2022/05/18 12:10:50;;;;;;;4.45;2.22;;;;;;;26.00;nan;101766.91;4956049;28;20054;-79
2022/05/18 12:13:20;;;;;;;3.10;2.20;;;;;;;26.22;nan;101758.16;4943355;28;20145;-78
2022/05/18 12:16:11;;;;;;;5.55;2.80;;;;;;;26.15;nan;101756.88;4961317;28;20516;-81
2022/05/18 12:18:47;;;;;;;4.22;2.28;;;;;;;26.45;nan;101758.47;4963578;28;20051;-79
2022/05/18 12:21:18;;;;;;;2.75;2.15;;;;;;;25.90;nan;101746.84;4952406;29;20509;-79
2022/05/18 12:23:57;;;;;;;3.67;2.15;;;;;;;26.24;nan;101747.25;4935979;29;20102;-80
2022/05/18 12:26:30;;;;;;;4.13;2.15;;;;;;;26.03;nan;101744.16;4951674;29;20047;-80
2022/05/18 12:28:57;;;;;;;4.40;2.22;;;;;;;26.24;nan;101747.25;4946419;28;20493;-79